Time;durP1;ratioP1;P1;durP2;ratioP2;P2;SDS_P1;SDS_P2;PMS_P1;PMS_P2;Temp;Humidity;BMP_temperature;BMP_pressure;BME280_temperature;BME280_humidity;BME280_pressure;Samples;Min_cycle;Max_cycle;Signal;HPM_P1;HPM_P2
2022/03/03 01:28:52;;;;;;;74.93;34.53;;;1.50;99.90;;;;;;6215921;22;20033;-92
2022/03/03 01:45:57;;;;;;;56.50;28.77;;;1.40;99.90;;;;;;6215997;23;20024;-89
2022/03/03 01:48:29;;;;;;;57.55;30.95;;;;;;;;;;6106747;23;20355;-89
2022/03/03 01:51:10;;;;;;;61.13;31.60;;;;;;;;;;6110171;23;20021;-88
2022/03/03 01:53:44;;;;;;;68.38;31.13;;;;;;;;;;6108875;23;20018;-89
2022/03/03 01:56:10;;;;;;;60.00;31.63;;;;;;;;;;6109440;23;20018;-89
2022/03/03 01:58:42;;;;;;;66.28;33.53;;;;;;;;;;6108712;23;20029;-89
2022/03/03 02:01:09;;;;;;;56.88;29.40;;;;;;;;;;6106151;23;20325;-88
2022/03/03 02:03:37;;;;;;;64.55;29.20;;;;;;;;;;6106928;23;20029;-89
2022/03/03 02:06:05;;;;;;;65.43;30.65;;;;;;;;;;6105976;23;20029;-88
2022/03/03 02:08:39;;;;;;;61.08;29.92;;;;;;;;;;6105314;23;20101;-88
2022/03/03 02:11:05;;;;;;;61.10;32.55;;;;;;;;;;6104740;23;20025;-88
2022/03/03 02:13:37;;;;;;;62.42;30.25;;;;;;;;;;6105312;23;20478;-88
2022/03/03 02:16:08;;;;;;;63.55;29.90;;;;;;;;;;6105937;23;20022;-89
2022/03/03 02:18:44;;;;;;;65.13;30.38;;;;;;;;;;6106043;23;20059;-89
2022/03/03 02:21:16;;;;;;;61.45;29.63;;;;;;;;;;6105889;23;20352;-89
2022/03/03 02:23:54;;;;;;;54.72;29.95;;;;;;;;;;6106654;23;20014;-88
2022/03/03 02:26:21;;;;;;;57.97;29.05;;;;;;;;;;6105263;23;20456;-88
2022/03/03 02:28:50;;;;;;;66.60;31.60;;;;;;;;;;6107177;23;20091;-88
2022/03/03 02:31:17;;;;;;;57.97;30.27;;;;;;;;;;6106836;23;20096;-91
2022/03/03 02:33:43;;;;;;;61.25;31.20;;;;;;;;;;6107102;23;20020;-90
2022/03/03 02:36:21;;;;;;;68.50;30.77;;;;;;;;;;6107753;23;20022;-91
2022/03/03 02:38:47;;;;;;;60.38;30.30;;;;;;;;;;6112524;23;20025;-89
2022/03/03 02:41:13;;;;;;;61.13;32.70;;;;;;;;;;6113407;23;20026;-89
2022/03/03 02:43:40;;;;;;;64.38;33.72;;;;;;;;;;6114310;23;20025;-88
2022/03/03 02:46:06;;;;;;;72.65;33.10;;;;;;;;;;6114384;23;20025;-89
2022/03/03 02:48:32;;;;;;;67.00;33.78;;;;;;;;;;6115591;23;20463;-89
2022/03/03 02:50:59;;;;;;;66.20;33.92;;;;;;;;;;6105183;23;20452;-88
2022/03/03 02:53:25;;;;;;;64.88;31.77;;;;;;;;;;6105251;23;20057;-88
2022/03/03 02:55:51;;;;;;;65.40;33.20;;;;;;;;;;6103535;23;20388;-89
2022/03/03 02:58:17;;;;;;;69.43;33.65;;;;;;;;;;6126443;23;20462;-89
2022/03/03 03:00:44;;;;;;;58.58;32.97;;;;;;;;;;6193225;23;20024;-89
2022/03/03 03:03:11;;;;;;;57.17;31.48;;;;;;;;;;6158825;23;20028;-86
2022/03/03 03:05:37;;;;;;;60.70;32.20;;;;;;;;;;6109418;23;20025;-89
2022/03/03 03:08:08;;;;;;;64.93;34.10;;;;;;;;;;6150202;23;20020;-89
2022/03/03 03:10:36;;;;;;;61.45;30.13;;;;;;;;;;6223974;23;20020;-87
2022/03/03 03:13:04;;;;;;;78.00;33.70;;;;;;;;;;6248649;23;20050;-87
2022/03/03 03:18:10;;;;;;;60.47;30.77;;;;;;;;;;6200876;22;20051;-90
2022/03/03 03:20:45;;;;;;;62.35;32.25;;;;;;;;;;6149924;23;20045;-90
2022/03/03 03:23:22;;;;;;;54.75;30.55;;;;;;;;;;6124968;23;20074;-89
2022/03/03 03:25:55;;;;;;;61.65;30.95;;;;;;;;;;6148384;23;20028;-88
2022/03/03 03:28:24;;;;;;;71.37;32.07;;;;;;;;;;6152669;23;20024;-91
2022/03/03 03:30:59;;;;;;;62.97;30.42;;;;;;;;;;6171818;23;20028;-90
2022/03/03 03:33:25;;;;;;;60.75;32.97;;;;;;;;;;6172709;23;20017;-88
2022/03/03 03:35:56;;;;;;;58.05;30.52;;;;;;;;;;6144114;23;20024;-89
2022/03/03 03:38:27;;;;;;;74.70;33.05;;;;;;;;;;6145983;23;20021;-89
2022/03/03 03:40:57;;;;;;;55.80;30.85;;;;;;;;;;6200482;23;20024;-88
2022/03/03 03:43:28;;;;;;;63.80;30.27;;;;;;;;;;6152830;23;20021;-89
2022/03/03 03:46:19;;;;;;;;;;;0.80;99.90;;;;;;6201881;23;20024;-90
2022/03/03 03:54:07;;;;;;;54.67;30.42;;;;;;;;;;6220306;23;20054;-90
2022/03/03 03:56:37;;;;;;;58.65;32.22;;;;;;;;;;6199121;23;20017;-90
2022/03/03 03:59:08;;;;;;;66.80;30.23;;;;;;;;;;6198640;23;20051;-90
2022/03/03 04:01:37;;;;;;;57.40;31.55;;;;;;;;;;6173448;23;20023;-90
2022/03/03 04:04:05;;;;;;;54.83;29.88;;;;;;;;;;6170217;23;20028;-90
2022/03/03 04:06:32;;;;;;;61.55;30.90;;;;;;;;;;6171334;23;20016;-90
2022/03/03 04:09:01;;;;;;;55.88;31.17;;;;;;;;;;6173504;23;20023;-90
2022/03/03 04:11:30;;;;;;;62.38;31.45;;;;;;;;;;6196449;23;20023;-90
2022/03/03 04:13:57;;;;;;;57.72;31.83;;;;;;;;;;6172764;23;20023;-89
2022/03/03 04:21:49;;;;;;;58.70;29.88;;;;;;;;;;6231656;22;20028;-89
2022/03/03 04:24:23;;;;;;;59.40;29.95;;;;;;;;;;6206491;23;20021;-88
2022/03/03 04:32:53;;;;;;;52.70;29.85;;;;;;;;;;6217147;23;20024;-89
2022/03/03 04:35:35;;;;;;;54.15;28.88;;;;;;;;;;6175010;23;20420;-90
2022/03/03 04:38:13;;;;;;;54.28;30.13;;;;;;;;;;6173369;23;20017;-91
2022/03/03 04:40:43;;;;;;;58.03;30.15;;;;;;;;;;6172957;23;20020;-90
2022/03/03 04:43:17;;;;;;;60.53;30.08;;;;;;;;;;6206142;23;20045;-88
2022/03/03 04:45:53;;;;;;;53.67;29.52;;;;;;;;;;6169244;23;20017;-88
2022/03/03 04:48:34;;;;;;;50.95;28.58;;;;;;;;;;6145708;23;20020;-90
2022/03/03 04:51:09;;;;;;;52.25;30.08;;;;;;;;;;6159070;23;20069;-88
2022/03/03 04:53:38;;;;;;;53.75;28.48;;;;;;;;;;6145356;23;20017;-89
2022/03/03 04:56:08;;;;;;;54.22;28.98;;;;;;;;;;6135241;23;20024;-88
2022/03/03 04:58:44;;;;;;;51.38;29.48;;;;;;;;;;6204531;23;20020;-89
2022/03/03 05:01:17;;;;;;;53.05;28.48;;;;;;;;;;6205247;23;20027;-89
2022/03/03 05:03:49;;;;;;;54.17;27.15;;;;;;;;;;6229660;23;20338;-89
2022/03/03 05:06:23;;;;;;;59.17;29.67;;;;;;;;;;6207397;23;20016;-89
2022/03/03 05:08:55;;;;;;;46.13;27.02;;;;;;;;;;6202814;23;20016;-89
2022/03/03 05:11:24;;;;;;;55.35;28.73;;;;;;;;;;6203133;23;20020;-89
2022/03/03 05:13:50;;;;;;;58.08;27.23;;;;;;;;;;6202478;23;20481;-88
2022/03/03 05:16:25;;;;;;;50.45;28.98;;;;;;;;;;6204574;23;20496;-89
2022/03/03 05:18:54;;;;;;;54.95;28.33;;;;;;;;;;6229141;23;20024;-89
2022/03/03 05:21:24;;;;;;;50.80;27.38;;;;;;;;;;6204299;23;20027;-91
2022/03/03 05:23:52;;;;;;;54.33;28.80;;;;;;;;;;6202071;23;20023;-89
2022/03/03 05:26:23;;;;;;;53.42;28.02;;;;;;;;;;6203542;23;20016;-89
2022/03/03 05:28:56;;;;;;;57.60;29.70;;;;;;;;;;6227835;23;20022;-90
2022/03/03 05:31:22;;;;;;;54.88;28.63;;;;;;;;;;6227112;23;20323;-88
2022/03/03 05:33:59;;;;;;;53.15;29.13;;;;;;;;;;6202761;23;20043;-89
2022/03/03 05:36:42;;;;;;;48.25;27.50;;;;;;;;;;6203180;23;20078;-88
2022/03/03 05:39:20;;;;;;;46.83;26.88;;;;;;;;;;6228882;23;20016;-89
2022/03/03 05:41:55;;;;;;;54.03;29.92;;;;;;;;;;6204553;23;20051;-89
2022/03/03 05:44:28;;;;;;;48.67;25.55;;;;;;;;;;6182256;23;20012;-89
2022/03/03 05:47:00;;;;;;;56.45;28.05;;;;;;;;;;6204216;23;20027;-89
2022/03/03 05:49:27;;;;;;;48.88;27.63;;;;;;;;;;6229718;23;20020;-89
2022/03/03 05:52:02;;;;;;;54.20;28.67;;;;;;;;;;6254851;23;20024;-88
2022/03/03 05:54:31;;;;;;;52.10;27.30;;;;;;;;;;6202733;23;20042;-89
2022/03/03 05:56:59;;;;;;;56.72;28.90;;;;;;;;;;6200734;23;20026;-89
2022/03/03 05:59:26;;;;;;;54.88;27.25;;;;;;;;;;6202497;23;20020;-88
2022/03/03 06:01:53;;;;;;;54.90;30.40;;;;;;;;;;6253897;23;20022;-88
2022/03/03 06:04:20;;;;;;;51.55;29.50;;;;;;;;;;6194182;22;20021;-89
2022/03/03 06:09:27;;;;;;;52.38;28.80;;;;;;;;;;6224987;23;20024;-88
2022/03/03 06:12:02;;;;;;;51.05;28.13;;;;;;;;;;6173234;23;20020;-89
2022/03/03 06:14:37;;;;;;;47.30;27.05;;;;;;;;;;6193939;23;20017;-88
2022/03/03 06:17:04;;;;;;;53.00;28.40;;;;;;;;;;6169874;23;20017;-89
2022/03/03 06:19:33;;;;;;;46.47;26.52;;;;;;;;;;6195185;23;20012;-89
2022/03/03 06:21:59;;;;;;;53.72;27.60;;;;;;;;;;6169124;23;20025;-88
2022/03/03 06:24:26;;;;;;;52.22;26.88;;;;;;;;;;6169938;23;20008;-89
2022/03/03 06:26:54;;;;;;;54.15;26.20;;;;;;;;;;6170179;23;20021;-88
2022/03/03 06:29:23;;;;;;;52.55;29.10;;;;;;;;;;6221452;23;20016;-89
2022/03/03 06:31:49;;;;;;;54.00;28.60;;;;;;;;;;6194097;23;20028;-89
2022/03/03 06:34:15;;;;;;;52.58;29.05;;;;;;;;;;6168247;23;20362;-88
2022/03/03 06:36:44;;;;;;;55.20;28.92;;;;;;;;;;6219354;23;20071;-88
2022/03/03 06:39:10;;;;;;;47.17;27.63;;;;;;;;;;6167318;23;20016;-89
2022/03/03 06:41:37;;;;;;;51.08;26.58;;;;;;;;;;6143253;23;20024;-89
2022/03/03 06:44:03;;;;;;;48.80;28.20;;;;;;;;;;6167370;23;20450;-91
2022/03/03 06:46:29;;;;;;;49.85;25.60;;;;;;;;;;6168190;23;20020;-89
2022/03/03 06:48:55;;;;;;;52.55;28.60;;;;;;;;;;6167944;23;20012;-89
2022/03/03 06:51:22;;;;;;;47.90;27.27;;;;;;;;;;6169658;23;20021;-90
2022/03/03 06:53:50;;;;;;;53.72;27.52;;;;;;;;;;6168383;23;20016;-92
2022/03/03 06:56:18;;;;;;;59.00;26.77;;;;;;;;;;6191829;23;20096;-90
2022/03/03 06:58:45;;;;;;;52.92;28.17;;;;;;;;;;6167498;23;20019;-89
2022/03/03 07:01:12;;;;;;;53.15;29.85;;;;;;;;;;6168090;23;20077;-89
2022/03/03 07:03:41;;;;;;;50.90;28.33;;;;;;;;;;6166543;23;20016;-91
2022/03/03 07:06:07;;;;;;;51.38;27.63;;;;;;;;;;6192060;23;20438;-88
2022/03/03 07:08:33;;;;;;;54.25;29.35;;;;;;;;;;6170405;23;20021;-90
2022/03/03 07:11:00;;;;;;;49.03;27.58;;;;;;;;;;6191423;23;20102;-90
2022/03/03 07:13:26;;;;;;;55.15;28.88;;;;;;;;;;6216491;23;20016;-92
2022/03/03 07:15:53;;;;;;;51.83;28.38;;;;;;;;;;6190898;23;20016;-88
2022/03/03 07:18:20;;;;;;;46.40;25.02;;;;;;;;;;6192312;23;20021;-88
2022/03/03 07:20:51;;;;;;;51.97;29.08;;;;;;;;;;6191228;23;20016;-91
2022/03/03 07:23:38;;;;;;;49.95;25.98;;;;;;;;;;6190673;23;20339;-88
2022/03/03 07:26:05;;;;;;;57.80;29.23;;;;;;;;;;6190589;23;20100;-88
2022/03/03 07:28:32;;;;;;;47.22;28.27;;;;;;;;;;6215622;23;20016;-89
2022/03/03 07:31:00;;;;;;;50.85;27.85;;;;;;;;;;6216338;23;20016;-90
2022/03/03 07:33:45;;;;;;;58.40;28.58;;;;;;;;;;6216886;23;20454;-90
2022/03/03 07:36:14;;;;;;;58.17;31.45;;;;;;;;;;6191108;23;20027;-87
2022/03/03 07:38:40;;;;;;;48.30;27.48;;;;;;;;;;6215740;23;20020;-87
2022/03/03 07:41:07;;;;;;;46.05;27.75;;;;;;;;;;6190505;23;20047;-88
2022/03/03 07:43:34;;;;;;;46.90;26.02;;;;;;;;;;6191020;23;20012;-89
2022/03/03 07:46:00;;;;;;;56.58;29.08;;;;;;;;;;6190548;23;20020;-87
2022/03/03 07:48:26;;;;;;;49.92;27.48;;;;;;;;;;6215420;23;20017;-87
2022/03/03 07:50:52;;;;;;;51.80;29.10;;;;;;;;;;6190527;23;20059;-87
2022/03/03 07:53:19;;;;;;;56.35;27.90;;;;;;;;;;6191850;23;20394;-87
2022/03/03 07:55:46;;;;;;;61.22;28.15;;;;;;;;;;6215633;23;20044;-91
2022/03/03 07:58:14;;;;;;;57.97;31.25;;;;;;;;;;6191369;23;20017;-87
2022/03/03 08:00:46;;;;;;;57.35;28.85;;;;;;;;;;6217005;23;20024;-87
2022/03/03 08:03:15;;;;;;;55.67;30.05;;;;;;;;;;6191784;23;20028;-87
2022/03/03 08:05:43;;;;;;;45.40;26.98;;;;;;;;;;6216500;23;20019;-89
2022/03/03 08:08:11;;;;;;;58.50;27.80;;;;;;;;;;6192979;23;20046;-90
2022/03/03 08:10:40;;;;;;;52.63;28.92;;;;;;;;;;6194680;23;20021;-89
2022/03/03 08:13:06;;;;;;;64.53;29.50;;;;;;;;;;6171482;23;20020;-90
2022/03/03 08:15:32;;;;;;;50.53;27.40;;;;;;;;;;6175616;23;20017;-89
2022/03/03 08:17:58;;;;;;;63.83;28.67;;;;;;;;;;6209481;23;20025;-89
2022/03/03 08:20:24;;;;;;;59.42;30.25;;;;;;;;;;6183641;23;20020;-88
2022/03/03 08:22:50;;;;;;;60.60;29.48;;;;;;;;;;6179142;23;20083;-90
2022/03/03 08:25:17;;;;;;;57.10;29.77;;;;;;;;;;6174914;23;20023;-91
2022/03/03 08:27:43;;;;;;;56.75;29.65;;;;;;;;;;6200104;23;20044;-89
2022/03/03 08:30:10;;;;;;;55.92;29.38;;;;;;;;;;6198357;23;20029;-90
2022/03/03 08:32:59;;;;;;;53.45;29.20;;;;;;;;;;6169308;23;20051;-88
2022/03/03 08:35:31;;;;;;;52.22;30.85;;;;;;;;;;6196677;23;20028;-88
2022/03/03 08:38:05;;;;;;;53.13;29.63;;;;;;;;;;6171975;23;20016;-94
2022/03/03 08:40:30;;;;;;;;;;;2.10;99.90;;;;;;6176413;23;20047;-88
2022/03/03 08:42:59;;;;;;;55.85;27.30;;;;;;;;;;6197314;23;19994;-89
2022/03/03 08:45:29;;;;;;;55.75;28.73;;;;;;;;;;6168060;23;20439;-90
2022/03/03 08:47:57;;;;;;;49.67;27.25;;;;;;;;;;6169086;23;20043;-93
2022/03/03 08:50:27;;;;;;;47.45;25.35;;;;;;;;;;6193495;23;20074;-91
2022/03/03 08:52:53;;;;;;;46.40;24.48;;;;;;;;;;6193641;23;20020;-89
2022/03/03 08:55:19;;;;;;;47.97;26.70;;;;;;;;;;6168152;23;20024;-88
2022/03/03 08:58:06;;;;;;;45.80;23.90;;;;;;;;;;6172669;23;20021;-93
2022/03/03 09:00:55;;;;;;;;;;;;;;;;;;;;;
2022/03/03 09:04:02;;;;;;;38.03;22.30;;;;;;;;;;6223385;23;20028;-91
2022/03/03 09:06:57;;;;;;;43.08;25.30;;;;;;;;;;6194765;23;20021;-95
2022/03/03 09:09:34;;;;;;;39.60;22.70;;;;;;;;;;6076042;23;20520;-93
2022/03/03 09:21:23;;;;;;;44.33;22.63;;;;;;;;;;6219221;23;20021;-93
2022/03/03 09:26:55;;;;;;;40.05;23.27;;;;;;;;;;6210778;23;20029;-92
2022/03/03 09:29:22;;;;;;;35.65;20.05;;;;;;;;;;6169226;23;20017;-92
2022/03/03 09:34:23;;;;;;;37.53;22.40;;;;;;;;;;6189500;23;20025;-89
2022/03/03 09:36:49;;;;;;;39.63;22.20;;;;;;;;;;6137575;23;20099;-90
2022/03/03 09:39:15;;;;;;;32.45;19.98;;;;;;;;;;6137896;23;20099;-91
2022/03/03 09:41:42;;;;;;;35.13;20.48;;;;;;;;;;6160653;23;20020;-89
2022/03/03 09:44:08;;;;;;;39.78;20.20;;;;;;;;;;6167480;23;20020;-91
2022/03/03 09:46:37;;;;;;;37.47;21.17;;;;;;;;;;6166433;23;20044;-91
2022/03/03 09:49:06;;;;;;;34.92;20.10;;;;;;;;;;6187228;23;20040;-91
2022/03/03 09:51:32;;;;;;;33.75;20.88;;;;;;;;;;6197212;23;20013;-90
2022/03/03 09:53:59;;;;;;;31.95;20.08;;;;;;;;;;6188161;23;20016;-88
2022/03/03 09:56:25;;;;;;;39.70;20.63;;;;;;;;;;6167533;23;20020;-93
2022/03/03 09:58:52;;;;;;;35.75;20.65;;;;;;;;;;6174527;23;20330;-91
2022/03/03 10:01:18;;;;;;;34.30;19.63;;;;;;;;;;6169082;23;20446;-92
2022/03/03 10:03:47;;;;;;;33.08;19.52;;;;;;;;;;6163581;23;20025;-91
2022/03/03 10:06:13;;;;;;;39.90;19.95;;;;;;;;;;6138090;23;20021;-91
2022/03/03 10:08:47;;;;;;;32.67;17.92;;;;;;;;;;6138188;23;20021;-88
2022/03/03 10:11:13;;;;;;;;;;;5.10;99.90;;;;;;6187579;22;20021;-89
2022/03/03 10:14:06;;;;;;;34.03;18.20;;;;;;;;;;6192051;23;19923;-89
2022/03/03 10:16:32;;;;;;;31.02;17.92;;;;;;;;;;6189636;23;20021;-90
2022/03/03 10:19:03;;;;;;;29.58;17.30;;;;;;;;;;6185281;23;20013;-91
2022/03/03 10:21:31;;;;;;;28.40;16.30;;;;;;;;;;6166882;23;20025;-90
2022/03/03 10:23:57;;;;;;;26.70;18.05;;;;;;;;;;6161619;23;20017;-90
2022/03/03 10:26:34;;;;;;;26.42;16.92;;;;;;;;;;6144469;23;20021;-93
2022/03/03 10:29:00;;;;;;;25.98;16.60;;;;;;;;;;6200129;23;20076;-93
2022/03/03 10:31:50;;;;;;;26.38;16.02;;;;;;;;;;6193300;23;20135;-92
2022/03/03 10:34:25;;;;;;;31.38;17.65;;;;;;;;;;6166405;23;20021;-92
2022/03/03 10:36:59;;;;;;;26.30;16.88;;;;;;;;;;6191284;23;20020;-92
2022/03/03 10:42:50;;;;;;;27.45;16.70;;;;;;;;;;6218081;23;20020;-92
2022/03/03 10:45:19;;;;;;;27.15;17.00;;;;;;;;;;6161695;23;20032;-91
2022/03/03 10:48:06;;;;;;;30.20;17.35;;;;;;;;;;6166433;23;20023;-92
2022/03/03 10:50:48;;;;;;;29.70;17.77;;;;;;;;;;6167824;23;20048;-91
2022/03/03 10:53:18;;;;;;;26.35;16.98;;;;;;;;;;6167489;23;20106;-95
2022/03/03 10:59:10;;;;;;;26.75;16.17;;;;;;;;;;6191758;23;20458;-92
2022/03/03 11:04:17;;;;;;;25.58;17.38;;;;;;;;;;6218218;22;20075;-90
2022/03/03 11:06:44;;;;;;;26.92;17.58;;;;;;;;;;6165426;23;20024;-88
2022/03/03 11:09:11;;;;;;;25.67;15.38;;;;;;;;;;6166774;23;20012;-89
2022/03/03 11:14:03;;;;;;;24.92;15.43;;;;;;;;;;6217686;22;20082;-88
2022/03/03 11:16:29;;;;;;;23.25;14.88;;;;;;;;;;6167309;23;20052;-89
2022/03/03 11:18:56;;;;;;;24.10;14.13;;;;;;;;;;6175995;23;20108;-88
2022/03/03 11:21:22;;;;;;;20.27;14.05;;;;;;;;;;6191611;23;20024;-87
2022/03/03 11:23:57;;;;;;;24.30;14.20;;;;;;;;;;6192606;23;20012;-94
2022/03/03 11:26:31;;;;;;;20.52;14.02;;;;;;;;;;6192710;23;20024;-90
2022/03/03 11:29:13;;;;;;;23.92;14.30;;;;;;;;;;6188043;23;20023;-89
2022/03/03 11:31:41;;;;;;;23.38;15.48;;;;;;;;;;6167393;23;20040;-88
2022/03/03 11:34:19;;;;;;;21.98;14.57;;;;;;;;;;6167076;23;20326;-90
2022/03/03 11:36:45;;;;;;;27.52;14.02;;;;;;;;;;6166788;23;20342;-91
2022/03/03 11:39:31;;;;;;;24.90;14.20;;;;;;;;;;6166431;23;20023;-90
2022/03/03 11:41:57;;;;;;;25.45;13.48;;;;;;;;;;6164701;23;20079;-90
2022/03/03 11:44:35;;;;;;;22.15;13.68;;;;;;;;;;6166093;23;20020;-91
2022/03/03 11:47:16;;;;;;;22.48;14.18;;;;;;;;;;6165773;23;20017;-91
2022/03/03 11:49:57;;;;;;;25.23;16.42;;;;;;;;;;6165409;23;20155;-87
2022/03/03 11:52:23;;;;;;;23.25;14.23;;;;;;;;;;6165822;23;20017;-89
2022/03/03 11:54:54;;;;;;;25.38;16.02;;;;;;;;;;6190379;23;20026;-89
2022/03/03 11:57:23;;;;;;;22.30;15.18;;;;;;;;;;6167060;23;20132;-88
2022/03/03 11:59:49;;;;;;;21.67;14.88;;;;;;;;;;6162713;22;20016;-89
2022/03/03 12:05:09;;;;;;;23.92;15.93;;;;;;;;;;6208011;22;20469;-92
2022/03/03 12:10:56;;;;;;;26.85;16.15;;;;;;;;;;6227185;22;20017;-92
2022/03/03 12:14:16;;;;;;;22.95;15.63;;;8.00;99.90;;;;;;6167788;23;20079;-94
2022/03/03 12:16:42;;;;;;;23.00;14.48;;;;;;;;;;6051855;23;20018;-91
2022/03/03 12:19:13;;;;;;;25.17;14.52;;;;;;;;;;6055102;23;20014;-92
2022/03/03 12:21:48;;;;;;;26.67;16.55;;;;;;;;;;6076157;23;20097;-93
2022/03/03 12:24:19;;;;;;;27.58;16.75;;;;;;;;;;6051051;23;20018;-93
2022/03/03 12:27:07;;;;;;;28.65;17.95;;;;;;;;;;6060150;23;20050;-90
2022/03/03 12:33:05;;;;;;;24.98;15.48;;;;;;;;;;6240362;22;20039;-92
2022/03/03 12:35:44;;;;;;;27.10;15.38;;;;;;;;;;6197675;23;20028;-91
2022/03/03 12:41:21;;;;;;;20.63;13.60;;;;;;;;;;6213417;23;20074;31
2022/03/03 12:43:48;;;;;;;20.88;14.63;;;;;;;;;;6156621;23;20040;-89
2022/03/03 12:46:14;;;;;;;25.60;14.27;;;;;;;;;;6134259;23;20053;-92
2022/03/03 12:48:41;;;;;;;20.70;13.60;;;;;;;;;;6136247;23;20059;-91
2022/03/03 12:51:45;;;;;;;22.88;15.15;;;;;;;;;;6142432;23;20013;-91
2022/03/03 12:54:12;;;;;;;21.08;13.18;;;;;;;;;;6137104;23;20056;-91
2022/03/03 12:56:38;;;;;;;21.42;12.75;;;;;;;;;;6136962;23;20014;-89
2022/03/03 12:59:57;;;;;;;17.30;11.95;;;;;;;;;;6134772;23;20317;-92
2022/03/03 13:02:16;;;;;;;15.98;10.98;;;;;;;;;;6072221;23;20045;-96
2022/03/03 13:04:46;;;;;;;19.23;11.95;;;;;;;;;;6075196;23;20018;-91
2022/03/03 13:10:17;;;;;;;24.75;13.02;;;;;;;;;;6093412;23;20034;-90
2022/03/03 13:13:12;;;;;;;21.00;12.35;;;;;;;;;;6073288;23;20146;-91
2022/03/03 13:15:39;;;;;;;16.83;12.00;;;;;;;;;;6072533;23;20045;-91
2022/03/03 13:19:09;;;;;;;;;;;;;;;;;;;;;
2022/03/03 13:25:33;;;;;;;17.38;10.77;;;8.80;99.90;;;;;;6219365;23;20028;-91
2022/03/03 13:31:36;;;;;;;15.85;10.82;;;;;;;;;;6075678;23;20093;-91
2022/03/03 13:37:31;;;;;;;13.70;9.90;;;;;;;;;;6210275;23;20334;-91
2022/03/03 13:39:57;;;;;;;14.75;9.65;;;;;;;;;;6166029;23;20029;-91
2022/03/03 13:42:26;;;;;;;14.25;9.52;;;;;;;;;;6164346;23;20067;-92
2022/03/03 13:44:54;;;;;;;14.20;9.63;;;;;;;;;;6139704;23;20470;-92
2022/03/03 13:50:23;;;;;;;15.35;8.75;;;;;;;;;;6192980;23;20029;-92
2022/03/03 13:52:49;;;;;;;13.43;9.32;;;;;;;;;;6140876;23;20064;-89
2022/03/03 13:55:18;;;;;;;14.40;9.15;;;;;;;;;;6139097;23;20016;-92
2022/03/03 13:57:56;;;;;;;12.15;8.90;;;;;;;;;;6161808;22;20025;-92
2022/03/03 14:00:23;;;;;;;14.13;8.95;;;;;;;;;;6169957;23;20021;-90
2022/03/03 14:03:10;;;;;;;14.40;9.27;;;;;;;;;;6225346;23;20096;-93
2022/03/03 14:05:38;;;;;;;14.55;9.27;;;;;;;;;;6157797;23;20012;-94
2022/03/03 14:08:27;;;;;;;11.55;8.35;;;;;;;;;;6174142;23;20021;-92
2022/03/03 14:11:03;;;;;;;11.27;8.35;;;;;;;;;;6197255;23;20027;-91
2022/03/03 14:13:52;;;;;;;12.95;8.40;;;;;;;;;;6166328;23;20021;-91
2022/03/03 14:16:23;;;;;;;16.98;10.50;;;;;;;;;;6161438;23;20025;-91
2022/03/03 14:18:50;;;;;;;17.17;9.77;;;;;;;;;;6161564;23;20013;-90
2022/03/03 14:23:47;;;;;;;15.68;10.38;;;;;;;;;;6192871;22;20017;-90
2022/03/03 14:29:30;;;;;;;16.23;10.77;;;;;;;;;;6191954;23;20024;-92
2022/03/03 14:31:56;;;;;;;14.35;9.90;;;;;;;;;;6167079;23;20020;-91
2022/03/03 14:34:22;;;;;;;14.85;10.05;;;;;;;;;;6167288;23;20012;-90
2022/03/03 14:36:49;;;;;;;15.57;9.10;;;;;;;;;;6194298;23;20342;-92
2022/03/03 14:39:15;;;;;;;13.18;8.60;;;;;;;;;;6171480;23;20046;-91
2022/03/03 14:44:32;;;;;;;12.77;9.25;;;;;;;;;;6252994;23;20449;-90
2022/03/03 14:46:58;;;;;;;14.75;9.73;;;;;;;;;;6199326;23;20039;-91
2022/03/03 14:49:24;;;;;;;12.63;8.50;;;;;;;;;;6199477;23;20016;-90
2022/03/03 14:51:51;;;;;;;15.65;10.23;;;;;;;;;;6183987;23;20020;-91
2022/03/03 14:54:18;;;;;;;19.17;10.07;;;;;;;;;;6194673;23;20144;-90
2022/03/03 14:56:46;;;;;;;12.68;8.65;;;;;;;;;;6167544;23;20099;-90
2022/03/03 14:59:15;;;;;;;16.48;9.93;;;;;;;;;;6165584;23;20311;-92
2022/03/03 15:01:41;;;;;;;15.65;9.90;;;;;;;;;;6163127;23;20042;-91
2022/03/03 15:04:12;;;;;;;15.73;10.65;;;;;;;;;;6162918;23;20375;-90
2022/03/03 15:06:38;;;;;;;18.77;10.55;;;;;;;;;;6162507;23;20043;-91
2022/03/03 15:11:35;;;;;;;18.50;11.02;;;;;;;;;;6216845;23;20398;-91
2022/03/03 15:14:02;;;;;;;15.13;11.20;;;;;;;;;;6191935;23;20115;-91
2022/03/03 15:18:54;;;;;;;18.48;11.30;;;;;;;;;;6188935;23;20462;-90
2022/03/03 15:21:20;;;;;;;19.08;10.95;;;;;;;;;;6137768;22;20520;-88
2022/03/03 15:23:46;;;;;;;15.93;10.63;;;;;;;;;;6174120;23;20031;-86
2022/03/03 15:26:12;;;;;;;16.05;10.50;;;;;;;;;;6198174;23;20027;-89
2022/03/03 15:28:39;;;;;;;20.27;11.57;;;;;;;;;;6190093;23;20032;-89
2022/03/03 15:31:05;;;;;;;17.40;9.95;;;;;;;;;;6167754;23;20515;-88
2022/03/03 15:39:00;;;;;;;16.45;10.30;;;;;;;;;;6161780;23;20021;-89
2022/03/03 15:41:26;;;;;;;17.75;10.52;;;;;;;;;;6164061;23;20462;-88
2022/03/03 15:43:54;;;;;;;14.75;10.50;;;;;;;;;;6195581;23;20022;-89
2022/03/03 15:46:20;;;;;;;16.15;10.27;;;;;;;;;;6195829;23;20110;-88
2022/03/03 15:48:46;;;;;;;18.45;11.15;;;;;;;;;;6196035;23;20020;-88
2022/03/03 15:51:12;;;;;;;14.70;10.18;;;;;;;;;;6220885;23;20012;-90
2022/03/03 15:53:39;;;;;;;17.45;10.13;;;;;;;;;;6195789;23;20065;-89
2022/03/03 15:56:05;;;;;;;14.25;9.95;;;;;;;;;;6195568;23;20161;-89
2022/03/03 15:58:31;;;;;;;14.13;9.98;;;;;;;;;;6196380;23;20012;-90
2022/03/03 16:00:57;;;;;;;15.13;9.38;;;;;;;;;;6196247;23;20058;-89
2022/03/03 16:03:23;;;;;;;18.15;10.25;;;;;;;;;;6195663;23;20067;-88
2022/03/03 16:05:49;;;;;;;17.23;11.15;;;;;;;;;;6195934;23;20045;-89
2022/03/03 16:08:16;;;;;;;13.82;10.15;;;;;;;;;;6162408;23;20021;-89
2022/03/03 16:10:43;;;;;;;17.08;10.80;;;;;;;;;;6161255;23;20015;-88
2022/03/03 16:13:11;;;;;;;22.17;12.32;;;;;;;;;;6136258;23;20025;-88
2022/03/03 16:15:37;;;;;;;18.75;12.40;;;;;;;;;;6136313;23;20094;-89
2022/03/03 16:18:03;;;;;;;19.88;11.38;;;;;;;;;;6136344;23;20021;-87
2022/03/03 16:20:29;;;;;;;19.80;11.73;;;;;;;;;;6160339;23;20094;-87
2022/03/03 16:22:55;;;;;;;18.20;11.63;;;;;;;;;;6170929;23;20045;-87
2022/03/03 16:25:22;;;;;;;17.77;12.15;;;;;;;;;;6106683;23;20013;-86
2022/03/03 16:27:48;;;;;;;27.08;11.80;;;;;;;;;;6107985;23;20076;-87
2022/03/03 16:30:14;;;;;;;21.80;13.43;;;;;;;;;;6107438;23;20096;-86
2022/03/03 16:32:43;;;;;;;21.13;12.77;;;;;;;;;;6157756;23;20016;-85
2022/03/03 16:35:09;;;;;;;20.02;11.98;;;;;;;;;;6184330;23;20435;-87
2022/03/03 16:37:36;;;;;;;17.02;10.70;;;;;;;;;;6161806;22;20029;-88
2022/03/03 16:40:02;;;;;;;17.75;11.25;;;;;;;;;;6136741;23;20451;-90
2022/03/03 16:42:28;;;;;;;19.52;11.50;;;;;;;;;;6135974;23;20096;-89
2022/03/03 16:44:57;;;;;;;22.58;11.75;;;;;;;;;;6161911;23;20020;-88
2022/03/03 16:47:23;;;;;;;16.50;9.85;;;;;;;;;;6161831;23;20060;-90
2022/03/03 16:49:50;;;;;;;15.98;10.18;;;;;;;;;;6146287;23;20055;-90
2022/03/03 16:52:17;;;;;;;17.48;9.52;;;;;;;;;;6166022;23;20020;-90
2022/03/03 16:54:48;;;;;;;14.88;9.85;;;;;;;;;;6165067;23;20023;-88
2022/03/03 16:57:16;;;;;;;16.90;10.00;;;;;;;;;;6168285;22;20016;-90
2022/03/03 16:59:42;;;;;;;14.68;10.00;;;;;;;;;;6198505;23;20051;-90
2022/03/03 17:02:08;;;;;;;19.05;10.25;;;;;;;;;;6178379;23;20017;-88
2022/03/03 17:04:34;;;;;;;16.08;9.48;;;;;;;;;;6137367;23;20025;-90
2022/03/03 17:07:00;;;;;;;17.65;10.15;;;;;;;;;;6137982;23;20017;-89
2022/03/03 17:09:27;;;;;;;17.75;9.77;;;;;;;;;;6139015;23;20017;-88
2022/03/03 17:11:53;;;;;;;20.27;10.23;;;;;;;;;;6139326;23;20021;-88
2022/03/03 17:14:19;;;;;;;17.33;10.07;;;;;;;;;;6139091;23;20443;-89
2022/03/03 17:16:46;;;;;;;18.98;11.85;;;;;;;;;;6154092;23;20077;-90
2022/03/03 17:19:12;;;;;;;20.38;10.73;;;;;;;;;;6198788;23;20078;-91
2022/03/03 17:21:38;;;;;;;19.50;11.02;;;;;;;;;;6197074;23;20020;-90
2022/03/03 17:24:09;;;;;;;17.35;11.23;;;;;;;;;;6196480;23;20019;-89
2022/03/03 17:26:39;;;;;;;20.70;10.95;;;;;;;;;;6197334;23;20027;-89
2022/03/03 17:29:05;;;;;;;22.60;12.70;;;;;;;;;;6208698;23;20419;-89
2022/03/03 17:31:31;;;;;;;21.20;12.50;;;;;;;;;;6168411;23;20052;-90
2022/03/03 17:34:02;;;;;;;18.27;11.60;;;;;;;;;;6167070;23;20044;-90
2022/03/03 17:36:28;;;;;;;18.63;10.82;;;;;;;;;;6167326;23;20103;-89
2022/03/03 17:38:54;;;;;;;15.88;10.52;;;;;;;;;;6167937;23;20442;-89
2022/03/03 17:41:20;;;;;;;20.27;11.95;;;;;;;;;;6191212;23;20070;-89
2022/03/03 17:43:48;;;;;;;19.75;12.55;;;;;;;;;;6167080;23;20346;-89
2022/03/03 17:46:15;;;;;;;25.42;13.43;;;;;;;;;;6166354;23;20020;-90
2022/03/03 17:48:45;;;;;;;16.17;11.65;;;;;;;;;;6191263;23;20017;-90
2022/03/03 17:51:14;;;;;;;23.15;11.13;;;;;;;;;;6192588;22;20071;-90
2022/03/03 17:53:42;;;;;;;18.70;10.85;;;;;;;;;;6185172;23;20095;-90
2022/03/03 17:56:12;;;;;;;17.38;9.65;;;;;;;;;;6163841;23;20021;-90